Česky Dansk Deutsch English Español Suomi Français Magyar Italiano Nederlands norsk Polski Português svenska Türkçe

 

Het Weer

Biskra (Algeria)

02:00, 21 augustus 2016 (GMT)

NWNNE
WE
SWSSE
Home            
Biskra Batna El Oued Bou-Saada Setif Constantine Touggourt Bejaia Djelfa Tebessa Jijel Achouat Tozeur Skikda Laghouat Gafsa Annaba Tilrempt/Hassi R'mel Dar-El-Beida Ghardaia Ouargla Jendouba Hassi-Messaoud Tabarka

Om een weerknop op uw website of weblog te plaatsen, copieer onderstaande code en plak die in uw pagina. In het eerste vakje staat HTML-code, in het tweede vakje UBB-code.


Add to Google

Details

Wind speed:2 bf, 5 kn, 2.6 m/s, 5.8 miles/h, 9.3 km/h
Wind direction:ENE, 070°
Visibility:Greater than 10000 m, 10 km, 32800 ft, 6.2 miles
Clouds:Ein wenig bewölkt at 3300 ft, 1006 m
Temperature:31°C, 88°F
Gefühlte Temperatur:30°C, 86°F
Dew-point:13°C, 55°F
Atmospheric pressure:1012 hPa, 759.1 mmHg, 29.88 inHg, 0.999 atm
Relative humidity:33.3 %
METAR:DAUB 210200Z 07005KT 9999 FEW033 31/13 Q1012

Snelkoppelingen

Actuele weersinformatie van de hele wereld. Voeg locaties toe met het plus (+) symbool. Deze snelkoppelingen kunnen worden toegevoegd aan Google.

Lid van de Technetium groep

website free tracking
StatCounter NetStat W3C Validator

21-07-2019 07:59:07
astro.technetium.be money.technetium.be phote.technetium.be tafeltennistafel.technetium.be www.ligfiets.net